This is the latest recevied weather packets stored in our database for station/object EA2BK-11. If no packets are shown the sender has not sent any weather packets the latest 10 day(s).
| Time | Temp. | Humidity | Pressure | Rain* | Wind** | Luminosity | Snow |
|---|---|---|---|---|---|---|---|
| 1777922320 | 15° C | 62% | 944 hPa | - | - | - | - |
| 1777921412 | 15.56° C | 62% | 944 hPa | - | - | - | - |
| 1777920507 | 15.56° C | 61% | 944 hPa | - | - | - | - |
| 1777919602 | 16.11° C | 60% | 944 hPa | - | - | - | - |
| 1777918697 | 16.67° C | 59% | 944 hPa | - | - | - | - |
| 1777917792 | 16.11° C | 60% | 944 hPa | - | - | - | - |
| 1777916886 | 16.11° C | 60% | 944 hPa | - | - | - | - |
| 1777915981 | 16.67° C | 59% | 943 hPa | - | - | - | - |
| 1777915076 | 16.11° C | 60% | 944 hPa | - | - | - | - |
| 1777914171 | 16.67° C | 60% | 944 hPa | - | - | - | - |
| 1777913265 | 17.22° C | 59% | 943 hPa | - | - | - | - |
| 1777912360 | 16.67° C | 59% | 943 hPa | - | - | - | - |
| 1777911455 | 16.11° C | 61% | 943 hPa | - | - | - | - |
| 1777910550 | 16.67° C | 59% | 943 hPa | - | - | - | - |
| 1777909645 | 17.78° C | 56% | 943 hPa | - | - | - | - |
| 1777908740 | 18.89° C | 52% | 943 hPa | - | - | - | - |
| 1777907835 | 20.56° C | 50% | 943 hPa | - | - | - | - |
| 1777906929 | 20° C | 52% | 943 hPa | - | - | - | - |
| 1777906024 | 18.33° C | 56% | 943 hPa | - | - | - | - |
| 1777905119 | 18.33° C | 54% | 943 hPa | - | - | - | - |
| 1777904214 | 24.44° C | 38% | 942 hPa | - | - | - | - |
| 1777903309 | 22.78° C | 42% | 942 hPa | - | - | - | - |
| 1777902403 | 22.22° C | 50% | 942 hPa | - | - | - | - |
| 1777901498 | 20° C | 55% | 942 hPa | - | - | - | - |
| 1777900593 | 22.22° C | 51% | 942 hPa | - | - | - | - |
* Rain since midnight (hover to see other rain measurements)
** Current wind speed in m/s (hover to see current wind gust speed)